Terminal Aerodrome Forecast
Issued by NWS

Current Version | Previous Version | Text Only | Print | Product List | Glossary On
Versions: 1 2 3 4 5 6 7 8 9 10 11 12 13 14 15 16 17 18 19 20 21
000
FTUS45 KABQ 212300
TAFROW
TAF
KROW 212340Z 2200/2224 14010KT P6SM VCTS SCT015 BKN040CB
     FM220200 16009KT P6SM VCSH BKN050
     FM220500 20004KT P6SM BKN020
     FM220900 17006KT P6SM OVC015
     FM221600 16007KT P6SM SCT030 BKN060=

USA.gov is the U.S. government's official web portal to all federal, state and local government web resources and services.